Sweeney Granite Mountains, California Weather observations

Data are for 10 minute period ending at time listed.
 Day   Time   Solar   Ave.   Ave.  Ave.  Vector  Max.   Baro.   Total    
  of    of     Rad.   Air    Rel.  Wind   Wind   Wind  Press.  Precip.   
Year   Day            Temp.  Hum.  Speed  Dir.   Gust                    
2014   (PST)  Kw/m2    F      %     mph   deg.    mph    mb.     in.     
-------------------------------------------------------------------------
 352    0:00   0.00   39.0    87    0.6   117     1.6   870.7    0.00 
 352    0:10   0.00   38.8    87    0.0     0     0.0   870.7    0.00 
 352    0:20   0.00   38.5    88    0.0     0     0.0   870.6    0.00 
 352    0:30   0.00   38.2    88    0.7   120     2.5   870.5    0.00 
 352    0:40   0.00   38.6    88    1.6   105     2.3   870.4    0.00 
 352    0:50   0.00   38.7    88    1.2   319     2.9   870.4    0.00 
 352    1:00   0.00   38.7    88    1.7   286     2.3   870.4    0.00 
 352    1:10   0.00   39.2    86    0.4   280     1.5   870.3    0.00 
 352    1:20   0.00   38.6    86    1.0   110     3.4   870.3    0.00 
 352    1:30   0.00   37.2    89    1.9   289     3.7   870.4    0.00 
 352    1:40   0.00   37.8    89    1.4   298     3.9   870.5    0.00 
 352    1:50   0.00   37.8    79    4.2   310     7.4   870.4    0.00 
 352    2:00   0.00   38.7    72    5.5   315     9.1   870.5    0.00 
 352    2:10   0.00   38.9    71    6.4   312     9.3   870.6    0.00 
 352    2:20   0.00   39.2    70    6.3   320    11.2   870.5    0.00 
 352    2:30   0.00   39.4    69    5.9   319    12.1   870.5    0.00 
 352    2:40   0.00   39.0    70    6.9   309    11.4   870.5    0.00 
 352    2:50   0.00   38.9    70    7.5   315    12.6   870.5    0.00 
 352    3:00   0.00   39.3    70    6.2   324    10.4   870.5    0.00 
 352    3:10   0.00   38.9    71    6.3   317    10.2   870.5    0.00 
 352    3:20   0.00   38.9    71    7.0   320    10.9   870.5    0.00 
 352    3:30   0.00   38.7    71    6.8   311    10.2   870.5    0.00 
 352    3:40   0.00   38.5    72    6.9   310    10.3   870.5    0.00 
 352    3:50   0.00   38.7    72    7.2   318    11.1   870.5    0.00 
 352    4:00   0.00   38.8    72    5.4   327     9.3   870.5    0.00 
 352    4:10   0.00   38.8    72    6.8   326    11.8   870.5    0.00 
 352    4:20   0.00   38.6    72    6.0   319     9.4   870.4    0.00 
 352    4:30   0.00   38.2    73    4.7   305     8.0   870.4    0.00 
 352    4:40   0.00   38.0    74    3.9   308     7.0   870.5    0.00 
 352    4:50   0.00   37.7    75    4.3   282     6.6   870.5    0.00 
 352    5:00   0.00   37.8    75    5.0   263     7.6   870.5    0.00 
 352    5:10   0.00   37.7    75    5.6   274     7.9   870.6    0.00 
 352    5:20   0.00   37.5    75    5.8   266     7.8   870.6    0.00 
 352    5:30   0.00   37.3    75    5.7   274     8.0   870.8    0.00 
 352    5:40   0.00   36.8    76    4.6   274     6.9   870.9    0.00 
 352    5:50   0.00   36.2    77    3.9   277     5.9   871.0    0.00 
 352    6:00   0.00   36.7    76    5.0   272     6.6   871.2    0.00 
 352    6:10   0.00   37.1    75    4.0   269     5.8   871.3    0.00 
 352    6:20   0.00   36.2    77    3.5   280     4.7   871.3    0.00 
 352    6:30   0.00   36.1    78    3.2   279     4.5   871.5    0.00 
 352    6:40   0.00   36.2    77    3.6   276     4.7   871.5    0.00 
 352    6:50   0.00   35.5    79    4.0   275     5.4   871.5    0.00 
 352    7:00   0.00   35.7    80    4.0   271     5.0   871.6    0.00 
 352    7:10   0.02   36.5    78    3.8   274     5.3   871.7    0.00 
 352    7:20   0.04   38.1    76    3.7   269     4.4   871.8    0.00 
 352    7:30   0.07   39.6    72    4.0   273     5.5   871.9    0.00 
 352    7:40   0.09   41.1    69    2.3   292     5.4   871.9    0.00 
 352    7:50   0.12   42.5    64    3.6   301     5.6   871.9    0.00 
 352    8:00   0.15   43.7    60    3.7   280     6.6   872.0    0.00 
 352    8:10   0.18   43.4    64    4.0   110     6.8   872.2    0.00 
 352    8:20   0.21   43.2    66    4.0   106     6.4   872.2    0.00 
 352    8:30   0.24   43.8    64    3.3   132     5.6   872.3    0.00 
 352    8:40   0.26   45.2    61    1.0   196     3.0   872.4    0.00 
 352    8:50   0.29   46.9    57    2.4   244     6.4   872.5    0.00 
 352    9:00   0.32   45.0    58    4.5   323     9.3   872.6    0.00 
 352    9:10   0.34   44.8    58    4.8   310     8.6   872.6    0.00 
 352    9:20   0.37   45.1    56    4.1   338     6.9   872.7    0.00 
 352    9:30   0.39   46.3    55    2.7   250     7.1   872.8    0.00 
 352    9:40   0.41   47.0    57    3.0   148     7.1   872.8    0.00 
 352    9:50   0.45   45.4    60    6.3   123    11.0   872.8    0.00 
 352   10:00   0.46   45.2    59    6.5   122    11.3   872.9    0.00 
 352   10:10   0.48   46.2    55    4.1    88     6.9   872.9    0.00 
 352   10:20   0.48   45.9    58    6.5   111    10.7   872.9    0.00 
 352   10:30   0.48   46.3    54    3.2   172     7.5   872.9    0.00 
 352   10:40   0.35   46.3    52    2.1   230     5.6   872.8    0.00 
 352   10:50   0.52   46.9    55    4.8   126     8.0   872.7    0.00 
 352   11:00   0.45   46.0    55    4.1    61     8.2   872.6    0.00 
 352   11:10   0.55   46.3    55    4.8   108     8.1   872.5    0.00 
 352   11:20   0.55   47.1    53    2.9   127     7.1   872.4    0.00 
 352   11:30   0.56   47.2    53    2.6    98     5.0   872.2    0.00 
 352   11:40   0.58   47.2    52    4.3   127     7.6   872.2    0.00 
 352   11:50   0.58   46.9    54    4.0   113     7.5   872.1    0.00 
 352   12:00   0.63   47.7    53    4.6   103     7.5   872.0    0.00 
 352   12:10   0.61   47.2    54    5.6    92     8.6   871.9    0.00 
 352   12:20   0.60   47.3    55    3.6   109     8.0   871.9    0.00 
 352   12:30   0.58   47.5    53    2.4   210     5.3   871.8    0.00 
 352   12:40   0.53   48.7    52    4.1   314     7.4   871.7    0.00 
 352   12:50   0.27   46.7    55    5.4   308     8.3   871.6    0.00 
 352   13:00   0.13   45.2    57    5.7   300     7.5   871.5    0.00 
 352   13:10   100.00  99999.0   99999  99999.0   99999   99999.0   99999.0   99999.00 
 352   13:20   0.33   46.0    52    2.5   264     7.5   871.5    0.00 
 352   13:30   0.44   47.7    52    4.3   351     9.2   871.5    0.00 
 352   13:40   0.33   46.7    55    3.3    96     9.7   871.5    0.00 
 352   13:50   0.15   45.4    57    3.3    90     6.6   871.4    0.00 
 352   14:00   0.26   46.2    55    2.3   150     6.6   871.5    0.00 
 352   14:10   0.34   47.1    51    2.3   209     3.9   871.5    0.00 
 352   14:20   0.36   48.3    49    2.4   157     4.5   871.5    0.00 
 352   14:30   0.31   48.1    49    1.9   167     5.0   871.5    0.00 
 352   14:40   0.15   47.0    52    2.7   103     5.2   871.5    0.00 
 352   14:50   0.26   47.0    52    3.3    79     7.7   871.6    0.00 
 352   15:00   0.25   47.3    52    4.2   116     9.0   871.7    0.00 
 352   15:10   0.09   45.5    54    4.0   128     6.0   871.7    0.00 
 352   15:20   0.15   46.1    54    3.7   104     5.6   871.8    0.00 
 352   15:30   0.15   46.4    53    1.5    77     3.9   871.9    0.00 
 352   15:40   0.05   45.5    54    5.1   296     9.8   871.9    0.00 
 352   15:50   0.02   44.2    56    7.5   294    10.7   872.1    0.00 
 352   16:00   0.01   43.7    57    8.2   297    10.9   872.1    0.00 
 352   16:10   0.01   43.5    56    7.0   300    10.7   872.3    0.00 
 352   16:20   0.01   43.0    57    7.8   298    10.6   872.3    0.00 
 352   16:30   0.00   42.8    58    7.3   297    13.1   872.5    0.00 
 352   16:40   0.00   42.1    62    7.8   299     9.9   872.6    0.00 
 352   16:50   0.00   42.1    61    8.7   295    12.0   872.8    0.00 
 352   17:00   0.00   42.2    60    8.0   304    11.8   872.8    0.00 
 352   17:10   0.00   42.4    60    8.1   303    12.9   872.9    0.00 
 352   17:20   0.00   42.3    61    6.8   311    12.2   872.9    0.00 
 352   17:30   0.00   42.0    62    6.4   315    12.8   873.0    0.00 
 352   17:40   0.00   41.8    63    6.6   311    12.3   873.2    0.00 
 352   17:50   0.00   41.4    64    7.6   303    11.5   873.3    0.00 
 352   18:00   0.00   41.4    64    9.8   311    14.2   873.3    0.00 
 352   18:10   0.00   42.1    63    7.1   323    12.1   873.3    0.00 
 352   18:20   0.00   42.6    62    6.3   322    11.6   873.4    0.00 
 352   18:30   0.00   41.7    64    8.4   298    12.1   873.5    0.00 
 352   18:40   0.00   41.6    65    7.7   294    13.0   873.7    0.00 
 352   18:50   0.00   41.6    65    6.4   300     9.5   873.7    0.00 
 352   19:00   0.00   41.2    66    6.6   300     9.3   873.8    0.00 
 352   19:10   0.00   40.9    67    4.2   291     7.2   873.8    0.00 
 352   19:20   0.00   40.7    67    3.5   284     5.6   873.8    0.00 
 352   19:30   0.00   40.7    67    2.8   286     4.5   873.9    0.00 
 352   19:40   0.00   39.7    69    1.5   270     4.5   873.9    0.00 
 352   19:50   0.00   40.9    66    3.6   280     5.3   873.9    0.00 
 352   20:00   0.00   41.4    64    2.6   284     6.4   874.0    0.00 

Return to Sweeney Granite Mountains graphs page.


Western Regional Climate Center,wrcc@dri.edu